createdAt,value
2018-07-14T00:00:01.866Z,2.87
2018-07-14T00:02:29.973Z,2.87
2018-07-14T00:04:58.069Z,2.83
2018-07-14T00:07:26.229Z,2.97
2018-07-14T00:09:54.323Z,3.00
2018-07-14T00:12:22.424Z,3.23
2018-07-14T00:14:50.360Z,2.70
2018-07-14T00:17:18.470Z,3.20
2018-07-14T00:19:46.575Z,2.80
2018-07-14T00:22:14.653Z,3.00
2018-07-14T00:24:42.674Z,2.90
2018-07-14T00:27:10.735Z,3.07
2018-07-14T00:29:38.870Z,2.77
2018-07-14T00:32:07.287Z,2.93
2018-07-14T00:34:35.494Z,2.80
2018-07-14T00:37:03.864Z,2.60
2018-07-14T00:39:31.965Z,2.83
2018-07-14T00:42:00.094Z,3.00
2018-07-14T00:44:28.192Z,2.80
2018-07-14T00:46:56.308Z,3.00
2018-07-14T00:49:24.412Z,2.80
2018-07-14T00:51:52.653Z,2.73
2018-07-14T00:54:20.712Z,2.73
2018-07-14T00:56:48.816Z,2.93
2018-07-14T00:59:16.904Z,2.73
2018-07-14T01:01:45.030Z,2.87
2018-07-14T01:04:13.103Z,2.50
2018-07-14T01:06:41.238Z,2.90
2018-07-14T01:09:09.426Z,3.10
2018-07-14T01:11:37.665Z,2.70
2018-07-14T01:14:05.835Z,2.70
2018-07-14T01:16:34.079Z,2.90
2018-07-14T01:19:02.374Z,3.33
2018-07-14T01:21:30.520Z,3.07
2018-07-14T01:23:58.599Z,2.50
2018-07-14T01:26:26.680Z,2.70
2018-07-14T01:28:54.824Z,2.67
2018-07-14T01:31:22.975Z,2.80
2018-07-14T01:33:51.080Z,2.80
2018-07-14T01:36:19.175Z,2.90
2018-07-14T01:38:47.292Z,2.80
2018-07-14T01:41:15.466Z,2.90
2018-07-14T01:43:43.666Z,2.70
2018-07-14T01:46:11.826Z,2.60
2018-07-14T01:48:40.020Z,2.60
2018-07-14T01:51:08.296Z,2.80
2018-07-14T01:53:36.634Z,3.03
2018-07-14T01:56:04.822Z,2.50
2018-07-14T01:58:32.954Z,2.80
2018-07-14T02:01:01.095Z,2.60
2018-07-14T02:03:29.196Z,2.80
2018-07-14T02:05:57.313Z,2.50
2018-07-14T02:08:25.436Z,2.77
2018-07-14T02:10:53.624Z,2.60
2018-07-14T02:13:21.736Z,2.70
2018-07-14T02:15:49.854Z,2.33
2018-07-14T02:18:17.930Z,2.80
2018-07-14T02:20:46.072Z,2.87
2018-07-14T02:23:14.172Z,2.70
2018-07-14T02:25:42.289Z,2.77
2018-07-14T02:28:10.421Z,2.80
2018-07-14T02:30:38.720Z,2.60
2018-07-14T02:33:06.887Z,2.43
2018-07-14T02:35:35.101Z,2.67
2018-07-14T02:38:03.223Z,2.60
2018-07-14T02:40:31.511Z,2.70
2018-07-14T02:42:59.620Z,2.60
2018-07-14T02:45:27.750Z,2.53
2018-07-14T02:47:55.832Z,2.50
2018-07-14T02:50:23.928Z,2.60
2018-07-14T02:52:52.033Z,2.67
2018-07-14T02:55:20.134Z,2.57
2018-07-14T02:57:48.280Z,2.70
2018-07-14T03:00:16.372Z,2.60
2018-07-14T03:02:44.492Z,2.80
2018-07-14T03:05:12.643Z,2.73
2018-07-14T03:07:40.885Z,2.70
2018-07-14T03:10:09.038Z,2.40
2018-07-14T03:12:37.385Z,2.67
2018-07-14T03:15:05.825Z,2.60
2018-07-14T03:17:34.297Z,3.07
2018-07-14T03:20:02.465Z,2.60
2018-07-14T03:22:30.540Z,2.50
2018-07-14T03:24:58.659Z,2.57
2018-07-14T03:27:26.735Z,2.30
2018-07-14T03:29:54.909Z,2.37
2018-07-14T03:32:23.001Z,2.40
2018-07-14T03:34:51.076Z,2.60
2018-07-14T03:37:19.024Z,2.50
2018-07-14T03:39:47.147Z,2.80
2018-07-14T03:42:15.128Z,2.47
2018-07-14T03:44:43.200Z,2.47
2018-07-14T03:47:11.275Z,2.47
2018-07-14T03:49:39.435Z,2.60
2018-07-14T03:52:07.583Z,2.60
2018-07-14T03:54:35.696Z,2.00
2018-07-14T03:57:03.860Z,2.50
2018-07-14T03:59:32.141Z,2.57
2018-07-14T04:02:00.319Z,2.13
2018-07-14T04:04:28.453Z,2.40
2018-07-14T04:06:56.536Z,2.40
2018-07-14T04:09:24.600Z,2.60
2018-07-14T04:11:52.720Z,2.00
2018-07-14T04:14:20.788Z,2.40
2018-07-14T04:16:48.910Z,2.43
2018-07-14T04:19:16.996Z,2.93
2018-07-14T04:21:45.089Z,2.40
2018-07-14T04:24:13.148Z,2.30
2018-07-14T04:26:41.272Z,2.63
2018-07-14T04:29:09.433Z,3.10
2018-07-14T04:31:37.586Z,2.27
2018-07-14T04:34:05.961Z,2.33
2018-07-14T04:36:34.831Z,2.30
2018-07-14T04:39:03.596Z,2.40
2018-07-14T04:41:31.738Z,2.30
2018-07-14T04:43:59.816Z,2.30
2018-07-14T04:46:27.996Z,2.13
2018-07-14T04:48:56.225Z,2.27
2018-07-14T04:51:24.348Z,2.10
2018-07-14T04:53:52.518Z,2.17
2018-07-14T04:56:20.801Z,1.97
2018-07-14T04:58:49.124Z,2.37
2018-07-14T05:01:17.075Z,2.20
2018-07-14T05:03:45.164Z,1.87
2018-07-14T05:06:13.421Z,2.10
2018-07-14T05:08:41.521Z,2.00
2018-07-14T05:11:09.695Z,2.40
2018-07-14T05:13:37.985Z,2.23
2018-07-14T05:16:06.228Z,1.90
2018-07-14T05:18:34.414Z,2.30
2018-07-14T05:21:02.584Z,2.07
2018-07-14T05:23:30.744Z,2.30
2018-07-14T05:25:59.061Z,2.37
2018-07-14T05:28:27.201Z,2.17
2018-07-14T05:30:55.317Z,2.30
2018-07-14T05:33:23.569Z,2.13
2018-07-14T05:35:51.692Z,2.17
2018-07-14T05:38:19.925Z,2.40
2018-07-14T05:40:48.132Z,2.30
2018-07-14T05:43:16.229Z,1.90
2018-07-14T05:45:44.380Z,2.10
2018-07-14T05:48:12.485Z,2.17
2018-07-14T05:50:40.681Z,2.33
2018-07-14T05:53:08.828Z,2.27
2018-07-14T05:55:36.738Z,2.00
2018-07-14T05:58:04.977Z,1.80
2018-07-14T06:00:33.093Z,2.17
2018-07-14T06:03:01.185Z,2.03
2018-07-14T06:05:29.260Z,2.10
2018-07-14T06:07:57.363Z,1.97
2018-07-14T06:10:25.523Z,2.23
2018-07-14T06:12:53.592Z,1.93
2018-07-14T06:15:21.686Z,1.83
2018-07-14T06:17:49.849Z,2.00
2018-07-14T06:20:17.956Z,1.80
2018-07-14T06:22:46.045Z,1.87
2018-07-14T06:25:14.206Z,1.93
2018-07-14T06:27:42.292Z,1.90
2018-07-14T06:30:10.449Z,1.90
2018-07-14T06:32:38.580Z,2.03
2018-07-14T06:35:06.702Z,1.90
2018-07-14T06:37:34.925Z,1.73
2018-07-14T06:40:03.080Z,1.87
2018-07-14T06:42:31.248Z,1.80
2018-07-14T06:44:59.320Z,2.20
2018-07-14T06:47:27.403Z,1.97
2018-07-14T06:49:55.474Z,1.90
2018-07-14T06:52:23.544Z,2.00
2018-07-14T06:54:51.631Z,1.90
2018-07-14T06:57:19.704Z,2.17
2018-07-14T06:59:47.778Z,2.03
2018-07-14T07:02:15.884Z,1.67
2018-07-14T07:04:43.984Z,1.73
2018-07-14T07:07:12.057Z,1.90
2018-07-14T07:09:40.151Z,2.00
2018-07-14T07:12:08.313Z,2.10
2018-07-14T07:14:36.425Z,2.10
2018-07-14T07:17:04.525Z,2.37
2018-07-14T07:19:32.451Z,2.00
2018-07-14T07:22:00.543Z,2.00
2018-07-14T07:24:28.645Z,2.10
2018-07-14T07:26:56.728Z,1.80
2018-07-14T07:29:24.825Z,2.00
2018-07-14T07:31:52.938Z,1.80
2018-07-14T07:34:21.044Z,1.80
2018-07-14T07:36:49.132Z,1.80
2018-07-14T07:39:17.205Z,1.90
2018-07-14T07:41:45.352Z,2.27
2018-07-14T07:44:13.436Z,1.90
2018-07-14T07:46:41.528Z,2.03
2018-07-14T07:49:09.818Z,1.73
2018-07-14T07:51:37.943Z,1.80
2018-07-14T07:54:06.328Z,1.87
2018-07-14T07:56:34.421Z,1.80
2018-07-14T07:59:02.529Z,2.00
2018-07-14T08:01:30.632Z,1.93
2018-07-14T08:03:58.716Z,1.83
2018-07-14T08:06:26.805Z,1.80
2018-07-14T08:08:54.897Z,1.67
2018-07-14T08:11:23.008Z,1.50
2018-07-14T08:13:51.093Z,1.70
2018-07-14T08:16:19.947Z,1.90
2018-07-14T08:18:48.034Z,1.70
2018-07-14T08:21:16.192Z,1.40
2018-07-14T08:23:44.329Z,1.90
2018-07-14T08:26:12.397Z,1.77
2018-07-14T08:28:40.568Z,2.00
2018-07-14T08:31:08.722Z,1.70
2018-07-14T08:33:36.877Z,1.70
2018-07-14T08:36:04.903Z,1.90
2018-07-14T08:38:33.061Z,1.90
2018-07-14T08:41:01.121Z,1.73
2018-07-14T08:43:29.284Z,1.70
2018-07-14T08:45:57.401Z,1.73
2018-07-14T08:48:25.464Z,1.60
2018-07-14T08:50:53.554Z,1.60
2018-07-14T08:53:21.639Z,1.80
2018-07-14T08:55:49.740Z,1.83
2018-07-14T08:58:17.842Z,1.80
2018-07-14T09:00:45.908Z,1.93
2018-07-14T09:03:13.987Z,1.80
2018-07-14T09:05:42.120Z,1.80
2018-07-14T09:08:10.208Z,1.87
2018-07-14T09:10:38.383Z,1.70
2018-07-14T09:13:06.370Z,1.50
2018-07-14T09:15:34.592Z,1.53
2018-07-14T09:18:02.689Z,1.50
2018-07-14T09:20:30.880Z,1.50
2018-07-14T09:22:58.940Z,1.47
2018-07-14T09:25:27.087Z,1.47
2018-07-14T09:30:29.779Z,1.60
2018-07-14T09:32:57.948Z,1.50
2018-07-14T09:35:26.006Z,1.47
2018-07-14T09:37:54.239Z,1.50
2018-07-14T09:40:22.332Z,1.50
2018-07-14T09:42:50.404Z,1.40
2018-07-14T09:45:18.540Z,1.50
2018-07-14T09:47:46.828Z,1.50
2018-07-14T09:50:14.902Z,1.60
2018-07-14T09:52:43.062Z,1.30
2018-07-14T09:55:11.431Z,1.60
2018-07-14T09:57:39.596Z,1.47
2018-07-14T10:00:11.968Z,1.30
2018-07-14T10:02:40.521Z,1.70
2018-07-14T10:05:08.459Z,1.73
2018-07-14T10:07:36.625Z,1.80
2018-07-14T10:10:05.207Z,1.57
2018-07-14T10:12:33.287Z,1.47
2018-07-14T10:15:01.554Z,1.50
2018-07-14T10:17:29.561Z,1.50
2018-07-14T10:19:57.609Z,1.50
2018-07-14T10:22:25.697Z,1.50
2018-07-14T10:24:53.808Z,1.23
2018-07-14T10:27:22.014Z,1.60
2018-07-14T10:29:50.100Z,1.60
2018-07-14T10:32:18.304Z,1.50
2018-07-14T10:34:46.481Z,1.53
2018-07-14T10:37:14.657Z,1.60
2018-07-14T10:39:42.900Z,1.50
2018-07-14T10:42:11.130Z,1.70
2018-07-14T10:44:39.217Z,1.80
2018-07-14T10:47:07.506Z,1.50
2018-07-14T10:49:35.686Z,1.70
2018-07-14T10:52:03.827Z,1.50
2018-07-14T10:54:31.947Z,1.60
2018-07-14T10:56:59.803Z,1.37
2018-07-14T10:59:27.940Z,1.53
2018-07-14T11:01:56.063Z,1.40
2018-07-14T11:04:24.234Z,1.70
2018-07-14T11:06:52.276Z,1.43
2018-07-14T11:09:20.362Z,1.30
2018-07-14T11:11:48.447Z,1.63
2018-07-14T11:14:16.599Z,1.60
2018-07-14T11:16:44.669Z,1.40
2018-07-14T11:19:12.846Z,1.50
2018-07-14T11:21:40.959Z,1.63
2018-07-14T11:24:09.061Z,1.50
2018-07-14T11:26:37.221Z,1.60
2018-07-14T11:29:05.473Z,1.40
2018-07-14T11:31:33.539Z,1.30
2018-07-14T11:34:01.677Z,1.60
2018-07-14T11:36:29.791Z,1.47
2018-07-14T11:38:57.902Z,1.67
2018-07-14T11:41:26.013Z,1.63
2018-07-14T11:43:54.085Z,1.53
2018-07-14T11:46:22.192Z,1.40
2018-07-14T11:48:50.289Z,1.50
2018-07-14T11:51:18.374Z,1.50
2018-07-14T11:53:46.500Z,1.40
2018-07-14T11:56:14.732Z,1.43
2018-07-14T11:58:42.905Z,1.30
2018-07-14T12:01:11.020Z,1.30
2018-07-14T12:03:39.143Z,1.30
2018-07-14T12:06:07.652Z,1.40
2018-07-14T12:08:35.803Z,1.33
2018-07-14T12:11:03.955Z,1.33
2018-07-14T12:13:32.067Z,1.40
2018-07-14T12:16:00.163Z,1.33
2018-07-14T12:18:28.296Z,1.30
2018-07-14T12:20:56.376Z,1.30
2018-07-14T12:23:24.465Z,1.40
2018-07-14T12:25:52.561Z,2.07
2018-07-14T12:28:20.645Z,1.23
2018-07-14T12:30:48.750Z,1.40
2018-07-14T12:33:16.853Z,1.30
2018-07-14T12:35:44.960Z,1.40
2018-07-14T12:38:13.112Z,1.50
2018-07-14T12:40:41.332Z,1.20
2018-07-14T12:43:09.628Z,1.50
2018-07-14T12:45:37.890Z,1.30
2018-07-14T12:48:06.061Z,1.20
2018-07-14T12:50:34.221Z,1.40
2018-07-14T12:53:02.335Z,1.37
2018-07-14T12:55:30.580Z,1.07
2018-07-14T12:57:58.652Z,1.37
2018-07-14T13:00:26.793Z,1.10
2018-07-14T13:02:54.886Z,1.37
2018-07-14T13:05:23.133Z,1.30
2018-07-14T13:07:51.236Z,1.13
2018-07-14T13:10:19.308Z,1.03
2018-07-14T13:12:47.555Z,1.30
2018-07-14T13:15:15.665Z,1.30
2018-07-14T13:17:43.749Z,1.20
2018-07-14T13:20:11.836Z,1.30
2018-07-14T13:22:41.203Z,1.17
2018-07-14T13:25:09.308Z,1.30
2018-07-14T13:27:37.474Z,1.37
2018-07-14T13:30:05.638Z,1.30
2018-07-14T13:32:33.881Z,1.47
2018-07-14T13:35:02.062Z,1.30
2018-07-14T13:37:30.216Z,1.20
2018-07-14T13:39:58.352Z,1.17
2018-07-14T13:42:26.437Z,8.20
2018-07-14T13:44:54.517Z,4.13
2018-07-14T13:47:22.587Z,2.60
2018-07-14T13:49:50.710Z,2.90
2018-07-14T13:52:18.784Z,4.07
2018-07-14T13:54:47.182Z,3.53
2018-07-14T13:57:15.344Z,3.63
2018-07-14T13:59:43.508Z,4.07
2018-07-14T14:02:11.745Z,6.93
2018-07-14T14:04:40.010Z,7.87
2018-07-14T14:07:08.144Z,2.83
2018-07-14T14:09:36.476Z,4.60
2018-07-14T14:12:04.663Z,4.30
2018-07-14T14:14:32.801Z,3.00
2018-07-14T14:17:00.889Z,3.33
2018-07-14T14:19:29.120Z,7.30
2018-07-14T14:21:57.218Z,3.20
2018-07-14T14:24:25.334Z,4.50
2018-07-14T14:26:53.466Z,5.07
2018-07-14T14:29:21.560Z,5.37
2018-07-14T14:31:49.746Z,1.90
2018-07-14T14:34:17.603Z,1.77
2018-07-14T14:36:45.697Z,8.10
2018-07-14T14:39:13.648Z,1.57
2018-07-14T14:41:41.740Z,1.97
2018-07-14T14:44:09.926Z,3.93
2018-07-14T14:46:38.081Z,1.87
2018-07-14T14:49:06.246Z,4.50
2018-07-14T14:51:34.488Z,4.47
2018-07-14T14:54:02.687Z,2.60
2018-07-14T14:56:30.759Z,3.33
2018-07-14T14:58:58.901Z,2.43
2018-07-14T15:01:26.988Z,2.70
2018-07-14T15:03:55.092Z,5.67
2018-07-14T15:06:23.224Z,2.53
2018-07-14T15:08:51.361Z,3.57
2018-07-14T15:11:19.531Z,2.50
2018-07-14T15:13:47.672Z,2.13
2018-07-14T15:16:15.773Z,2.43
2018-07-14T15:18:44.004Z,1.90
2018-07-14T15:21:12.117Z,1.57
2018-07-14T15:23:40.273Z,2.10
2018-07-14T15:26:08.448Z,2.97
2018-07-14T15:28:36.721Z,2.13
2018-07-14T15:31:04.860Z,2.20
2018-07-14T15:33:32.981Z,2.30
2018-07-14T15:36:01.169Z,2.53
2018-07-14T15:38:29.293Z,2.37
2018-07-14T15:40:57.411Z,1.70
2018-07-14T15:43:25.505Z,2.23
2018-07-14T15:45:53.633Z,1.30
2018-07-14T15:48:21.764Z,1.87
2018-07-14T15:50:49.877Z,2.47
2018-07-14T15:53:18.101Z,2.67
2018-07-14T15:55:46.219Z,2.00
2018-07-14T15:58:14.338Z,2.67
2018-07-14T16:00:42.457Z,2.03
2018-07-14T16:03:10.588Z,2.07
2018-07-14T16:05:38.700Z,2.53
2018-07-14T16:08:07.247Z,2.23
2018-07-14T16:10:35.371Z,3.10
2018-07-14T16:13:03.356Z,1.37
2018-07-14T16:15:31.455Z,2.83
2018-07-14T16:17:59.564Z,1.30
2018-07-14T16:20:27.839Z,1.63
2018-07-14T16:22:55.925Z,1.40
2018-07-14T16:25:24.049Z,2.17
2018-07-14T16:27:52.216Z,1.20
2018-07-14T16:30:20.352Z,1.17
2018-07-14T16:32:48.463Z,2.20
2018-07-14T16:35:16.631Z,2.13
2018-07-14T16:37:44.831Z,1.30
2018-07-14T16:40:12.987Z,1.73
2018-07-14T16:42:41.145Z,2.40
2018-07-14T16:45:09.386Z,1.10
2018-07-14T16:47:37.531Z,1.60
2018-07-14T16:50:05.907Z,1.60
2018-07-14T16:52:34.029Z,1.90
2018-07-14T16:55:02.168Z,1.47
2018-07-14T16:57:30.573Z,1.30
2018-07-14T16:59:58.700Z,2.13
2018-07-14T17:02:26.792Z,1.73
2018-07-14T17:04:54.969Z,1.93
2018-07-14T17:07:23.107Z,1.60
2018-07-14T17:09:51.242Z,2.63
2018-07-14T17:12:19.399Z,3.10
2018-07-14T17:14:47.596Z,1.63
2018-07-14T17:17:15.702Z,1.63
2018-07-14T17:19:43.792Z,1.47
2018-07-14T17:22:12.208Z,1.60
2018-07-14T17:24:40.394Z,1.33
2018-07-14T17:27:08.556Z,1.93
2018-07-14T17:29:36.403Z,3.67
2018-07-14T17:32:04.688Z,1.30
2018-07-14T17:34:32.845Z,1.00
2018-07-14T17:37:00.997Z,1.40
2018-07-14T17:39:29.065Z,1.30
2018-07-14T17:41:57.206Z,1.20
2018-07-14T17:44:25.301Z,1.73
2018-07-14T17:46:53.392Z,1.77
2018-07-14T17:49:21.492Z,1.53
2018-07-14T17:51:49.600Z,2.20
2018-07-14T17:54:17.696Z,1.70
2018-07-14T17:56:45.871Z,2.03
2018-07-14T17:59:13.976Z,1.37
2018-07-14T18:01:42.133Z,1.50
2018-07-14T18:04:10.336Z,1.00
2018-07-14T18:06:38.520Z,1.83
2018-07-14T18:09:07.784Z,1.47
2018-07-14T18:11:36.271Z,1.20
2018-07-14T18:14:04.421Z,2.00
2018-07-14T18:16:32.804Z,1.30
2018-07-14T18:19:01.110Z,1.20
2018-07-14T18:21:29.381Z,1.10
2018-07-14T18:23:57.468Z,1.37
2018-07-14T18:26:25.559Z,2.07
2018-07-14T18:28:53.648Z,1.20
2018-07-14T18:31:21.791Z,1.33
2018-07-14T18:33:49.956Z,1.43
2018-07-14T18:36:18.063Z,1.57
2018-07-14T18:38:46.236Z,1.10
2018-07-14T18:41:14.317Z,1.13
2018-07-14T18:43:42.565Z,1.30
2018-07-14T18:46:10.703Z,1.20
2018-07-14T18:48:38.833Z,1.80
2018-07-14T18:51:07.110Z,1.30
2018-07-14T18:53:35.352Z,1.23
2018-07-14T18:56:03.492Z,1.30
2018-07-14T18:58:31.556Z,1.33
2018-07-14T19:00:59.676Z,1.10
2018-07-14T19:03:27.917Z,1.20
2018-07-14T19:05:56.174Z,1.43
2018-07-14T19:08:24.384Z,1.30
2018-07-14T19:10:52.524Z,1.37
2018-07-14T19:13:20.604Z,1.10
2018-07-14T19:15:48.712Z,1.47
2018-07-14T19:18:16.858Z,1.10
2018-07-14T19:20:44.997Z,1.40
2018-07-14T19:23:13.090Z,1.40
2018-07-14T19:25:41.255Z,1.27
2018-07-14T19:28:09.200Z,1.37
2018-07-14T19:30:37.325Z,1.70
2018-07-14T19:33:05.487Z,1.10
2018-07-14T19:35:33.615Z,1.27
2018-07-14T19:38:01.965Z,1.00
2018-07-14T19:40:30.016Z,1.33
2018-07-14T19:42:58.130Z,0.90
2018-07-14T19:45:26.215Z,1.33
2018-07-14T19:47:54.313Z,1.30
2018-07-14T19:50:22.424Z,1.20
2018-07-14T19:52:50.593Z,1.30
2018-07-14T19:55:18.695Z,1.10
2018-07-14T19:57:46.805Z,1.37
2018-07-14T20:00:14.889Z,1.20
2018-07-14T20:02:43.057Z,1.10
2018-07-14T20:05:11.204Z,1.20
2018-07-14T20:07:39.321Z,2.03
2018-07-14T20:10:07.477Z,1.30
2018-07-14T20:12:35.653Z,0.93
2018-07-14T20:15:03.773Z,1.10
2018-07-14T20:17:31.866Z,1.60
2018-07-14T20:19:59.965Z,1.37
2018-07-14T20:22:28.056Z,0.97
2018-07-14T20:24:56.196Z,1.20
2018-07-14T20:27:24.393Z,0.90
2018-07-14T20:29:52.499Z,1.17
2018-07-14T20:32:20.343Z,1.53
2018-07-14T20:34:48.532Z,0.97
2018-07-14T20:37:16.637Z,1.20
2018-07-14T20:39:44.789Z,1.50
2018-07-14T20:42:12.933Z,1.50
2018-07-14T20:44:41.092Z,1.60
2018-07-14T20:47:09.311Z,0.80
2018-07-14T20:49:37.597Z,1.10
2018-07-14T20:52:05.728Z,1.20
2018-07-14T20:54:33.885Z,1.27
2018-07-14T20:57:01.993Z,1.40
2018-07-14T20:59:30.147Z,1.17
2018-07-14T21:01:58.276Z,1.30
2018-07-14T21:04:26.566Z,1.23
2018-07-14T21:06:54.648Z,1.10
2018-07-14T21:09:22.740Z,1.30
2018-07-14T21:11:50.872Z,1.10
2018-07-14T21:14:19.021Z,1.43
2018-07-14T21:16:47.122Z,0.93
2018-07-14T21:19:15.220Z,1.17
2018-07-14T21:21:43.320Z,1.77
2018-07-14T21:24:11.402Z,1.10
2018-07-14T21:26:39.552Z,0.87
2018-07-14T21:29:07.447Z,1.13
2018-07-14T21:31:35.636Z,1.40
2018-07-14T21:34:03.838Z,1.10
2018-07-14T21:36:31.948Z,1.20
2018-07-14T21:39:00.205Z,1.20
2018-07-14T21:41:28.370Z,2.00
2018-07-14T21:43:56.453Z,1.00
2018-07-14T21:46:24.624Z,0.93
2018-07-14T21:48:52.864Z,0.93
2018-07-14T21:51:20.988Z,1.23
2018-07-14T21:53:49.076Z,1.10
2018-07-14T21:56:17.177Z,1.10
2018-07-14T21:58:45.040Z,1.10
2018-07-14T22:01:18.717Z,1.20
2018-07-14T22:03:46.787Z,1.20
2018-07-14T22:06:14.868Z,0.97
2018-07-14T22:08:43.056Z,1.23
2018-07-14T22:11:11.160Z,1.20
2018-07-14T22:13:39.518Z,1.13
2018-07-14T22:16:07.692Z,1.17
2018-07-14T22:18:35.880Z,1.97
2018-07-14T22:21:04.014Z,1.10
2018-07-14T22:23:32.136Z,1.50
2018-07-14T22:26:00.229Z,1.10
2018-07-14T22:28:28.315Z,1.20
2018-07-14T22:30:56.634Z,0.90
2018-07-14T22:33:24.790Z,1.30
2018-07-14T22:35:52.887Z,1.10
2018-07-14T22:38:20.948Z,1.03
2018-07-14T22:40:49.012Z,0.90
2018-07-14T22:43:17.089Z,1.40
2018-07-14T22:45:45.178Z,1.20
2018-07-14T22:48:13.252Z,1.50
2018-07-14T22:50:41.383Z,1.20
2018-07-14T22:53:09.497Z,1.20
2018-07-14T22:55:37.652Z,1.10
2018-07-14T22:58:05.801Z,1.03
2018-07-14T23:00:33.896Z,1.10
2018-07-14T23:03:01.973Z,1.37
2018-07-14T23:05:30.049Z,1.27
2018-07-14T23:07:58.132Z,0.93
2018-07-14T23:10:26.213Z,1.27
2018-07-14T23:12:54.303Z,1.40
2018-07-14T23:15:22.481Z,1.10
2018-07-14T23:17:50.569Z,1.17
2018-07-14T23:20:18.661Z,1.33
2018-07-14T23:22:46.780Z,1.27
2018-07-14T23:25:14.900Z,1.00
2018-07-14T23:27:43.042Z,1.03
2018-07-14T23:30:11.132Z,1.27
2018-07-14T23:32:39.220Z,1.10
2018-07-14T23:35:07.108Z,1.13
2018-07-14T23:37:35.460Z,1.17
2018-07-14T23:40:03.649Z,1.20
2018-07-14T23:42:31.732Z,1.20
2018-07-14T23:44:59.859Z,1.03
2018-07-14T23:47:27.961Z,1.27
2018-07-14T23:49:56.049Z,1.00
2018-07-14T23:52:24.141Z,1.20
2018-07-14T23:54:52.305Z,1.10
2018-07-14T23:57:20.468Z,0.97
2018-07-14T23:59:48.535Z,1.20
